sensor_id;sensor_type;location;lat;lon;timestamp;P1;durP1;ratioP1;P2;durP2;ratioP2
64615;SDS011;51027;42.162;24.754;2023-03-04T00:01:41;86.53;;;45.65;;
64615;SDS011;51027;42.162;24.754;2023-03-04T00:04:07;82.93;;;45.70;;
64615;SDS011;51027;42.162;24.754;2023-03-04T00:06:32;77.57;;;44.63;;
64615;SDS011;51027;42.162;24.754;2023-03-04T00:08:58;74.88;;;43.47;;
64615;SDS011;51027;42.162;24.754;2023-03-04T00:11:23;76.32;;;44.55;;
64615;SDS011;51027;42.162;24.754;2023-03-04T00:13:49;78.57;;;43.47;;
64615;SDS011;51027;42.162;24.754;2023-03-04T00:16:15;77.72;;;43.75;;
64615;SDS011;51027;42.162;24.754;2023-03-04T00:18:40;74.53;;;41.25;;
64615;SDS011;51027;42.162;24.754;2023-03-04T00:21:06;81.30;;;44.60;;
64615;SDS011;51027;42.162;24.754;2023-03-04T00:23:31;78.85;;;42.33;;
64615;SDS011;51027;42.162;24.754;2023-03-04T00:25:56;73.22;;;40.75;;
64615;SDS011;51027;42.162;24.754;2023-03-04T00:28:22;79.07;;;44.90;;
64615;SDS011;51027;42.162;24.754;2023-03-04T00:30:47;77.03;;;42.22;;
64615;SDS011;51027;42.162;24.754;2023-03-04T00:33:13;70.93;;;40.88;;
64615;SDS011;51027;42.162;24.754;2023-03-04T00:35:39;73.63;;;39.65;;
64615;SDS011;51027;42.162;24.754;2023-03-04T00:38:05;76.07;;;39.92;;
64615;SDS011;51027;42.162;24.754;2023-03-04T00:40:30;60.70;;;36.30;;
64615;SDS011;51027;42.162;24.754;2023-03-04T00:42:56;63.65;;;38.10;;
64615;SDS011;51027;42.162;24.754;2023-03-04T00:45:21;74.05;;;39.15;;
64615;SDS011;51027;42.162;24.754;2023-03-04T00:47:46;67.43;;;37.90;;
64615;SDS011;51027;42.162;24.754;2023-03-04T00:50:12;67.88;;;36.35;;
64615;SDS011;51027;42.162;24.754;2023-03-04T00:52:37;67.68;;;35.88;;
64615;SDS011;51027;42.162;24.754;2023-03-04T00:55:03;58.42;;;34.95;;
64615;SDS011;51027;42.162;24.754;2023-03-04T00:57:29;62.70;;;34.35;;
64615;SDS011;51027;42.162;24.754;2023-03-04T00:59:55;62.65;;;35.63;;
64615;SDS011;51027;42.162;24.754;2023-03-04T01:02:20;71.45;;;37.20;;
64615;SDS011;51027;42.162;24.754;2023-03-04T01:04:46;65.18;;;36.75;;
64615;SDS011;51027;42.162;24.754;2023-03-04T01:07:11;65.13;;;35.40;;
64615;SDS011;51027;42.162;24.754;2023-03-04T01:09:37;65.22;;;36.63;;
64615;SDS011;51027;42.162;24.754;2023-03-04T01:12:02;67.03;;;37.35;;
64615;SDS011;51027;42.162;24.754;2023-03-04T01:14:28;65.43;;;37.10;;
64615;SDS011;51027;42.162;24.754;2023-03-04T01:16:54;63.28;;;36.70;;
64615;SDS011;51027;42.162;24.754;2023-03-04T01:19:19;60.42;;;36.45;;
64615;SDS011;51027;42.162;24.754;2023-03-04T01:21:45;68.38;;;36.05;;
64615;SDS011;51027;42.162;24.754;2023-03-04T01:24:11;60.72;;;35.45;;
64615;SDS011;51027;42.162;24.754;2023-03-04T01:26:36;67.15;;;37.22;;
64615;SDS011;51027;42.162;24.754;2023-03-04T01:29:02;68.05;;;36.40;;
64615;SDS011;51027;42.162;24.754;2023-03-04T01:31:28;61.83;;;35.70;;
64615;SDS011;51027;42.162;24.754;2023-03-04T01:33:53;66.70;;;36.30;;
64615;SDS011;51027;42.162;24.754;2023-03-04T01:36:19;67.55;;;36.92;;
64615;SDS011;51027;42.162;24.754;2023-03-04T01:38:44;68.95;;;38.10;;
64615;SDS011;51027;42.162;24.754;2023-03-04T01:41:10;74.85;;;38.78;;
64615;SDS011;51027;42.162;24.754;2023-03-04T01:43:37;72.55;;;38.85;;
64615;SDS011;51027;42.162;24.754;2023-03-04T01:46:03;77.90;;;39.13;;
64615;SDS011;51027;42.162;24.754;2023-03-04T01:48:30;66.10;;;37.92;;
64615;SDS011;51027;42.162;24.754;2023-03-04T01:51:00;64.07;;;38.10;;
64615;SDS011;51027;42.162;24.754;2023-03-04T01:53:27;65.22;;;38.35;;
64615;SDS011;51027;42.162;24.754;2023-03-04T01:56:00;61.53;;;36.13;;
64615;SDS011;51027;42.162;24.754;2023-03-04T01:58:35;70.28;;;37.28;;
64615;SDS011;51027;42.162;24.754;2023-03-04T02:01:00;63.70;;;36.42;;
64615;SDS011;51027;42.162;24.754;2023-03-04T02:03:26;62.58;;;35.45;;
64615;SDS011;51027;42.162;24.754;2023-03-04T02:05:52;70.90;;;38.00;;
64615;SDS011;51027;42.162;24.754;2023-03-04T02:08:20;67.25;;;38.63;;
64615;SDS011;51027;42.162;24.754;2023-03-04T02:10:48;60.40;;;35.83;;
64615;SDS011;51027;42.162;24.754;2023-03-04T02:13:15;68.32;;;36.53;;
64615;SDS011;51027;42.162;24.754;2023-03-04T02:15:42;63.10;;;37.25;;
64615;SDS011;51027;42.162;24.754;2023-03-04T02:18:16;65.05;;;35.75;;
64615;SDS011;51027;42.162;24.754;2023-03-04T02:26:32;66.65;;;36.70;;
64615;SDS011;51027;42.162;24.754;2023-03-04T02:29:02;59.63;;;34.08;;
64615;SDS011;51027;42.162;24.754;2023-03-04T02:31:38;60.80;;;32.67;;
64615;SDS011;51027;42.162;24.754;2023-03-04T02:34:10;55.35;;;31.33;;
64615;SDS011;51027;42.162;24.754;2023-03-04T02:36:41;53.13;;;30.83;;
64615;SDS011;51027;42.162;24.754;2023-03-04T02:39:12;54.15;;;29.67;;
64615;SDS011;51027;42.162;24.754;2023-03-04T02:41:49;55.28;;;30.25;;
64615;SDS011;51027;42.162;24.754;2023-03-04T02:44:16;53.63;;;30.65;;
64615;SDS011;51027;42.162;24.754;2023-03-04T02:46:47;55.50;;;30.10;;
64615;SDS011;51027;42.162;24.754;2023-03-04T02:49:13;55.50;;;30.80;;
64615;SDS011;51027;42.162;24.754;2023-03-04T02:51:39;57.50;;;30.73;;
64615;SDS011;51027;42.162;24.754;2023-03-04T02:54:13;62.08;;;32.25;;
64615;SDS011;51027;42.162;24.754;2023-03-04T02:56:48;58.67;;;31.58;;
64615;SDS011;51027;42.162;24.754;2023-03-04T02:59:15;55.28;;;30.63;;
64615;SDS011;51027;42.162;24.754;2023-03-04T03:01:41;55.50;;;30.77;;
64615;SDS011;51027;42.162;24.754;2023-03-04T03:04:07;56.65;;;30.73;;
64615;SDS011;51027;42.162;24.754;2023-03-04T03:06:33;56.78;;;31.48;;
64615;SDS011;51027;42.162;24.754;2023-03-04T03:08:59;53.17;;;30.65;;
64615;SDS011;51027;42.162;24.754;2023-03-04T03:11:25;58.42;;;32.30;;
64615;SDS011;51027;42.162;24.754;2023-03-04T03:13:50;57.28;;;31.90;;
64615;SDS011;51027;42.162;24.754;2023-03-04T03:16:16;55.13;;;31.63;;
64615;SDS011;51027;42.162;24.754;2023-03-04T03:18:41;53.10;;;30.27;;
64615;SDS011;51027;42.162;24.754;2023-03-04T03:21:07;54.85;;;31.58;;
64615;SDS011;51027;42.162;24.754;2023-03-04T03:23:33;56.70;;;31.60;;
64615;SDS011;51027;42.162;24.754;2023-03-04T03:25:59;58.70;;;31.80;;
64615;SDS011;51027;42.162;24.754;2023-03-04T03:28:25;57.15;;;30.20;;
64615;SDS011;51027;42.162;24.754;2023-03-04T03:30:50;55.95;;;30.75;;
64615;SDS011;51027;42.162;24.754;2023-03-04T03:33:16;52.03;;;29.73;;
64615;SDS011;51027;42.162;24.754;2023-03-04T03:35:42;57.20;;;30.33;;
64615;SDS011;51027;42.162;24.754;2023-03-04T03:38:07;52.83;;;29.65;;
64615;SDS011;51027;42.162;24.754;2023-03-04T03:40:33;47.85;;;29.13;;
64615;SDS011;51027;42.162;24.754;2023-03-04T03:42:58;48.88;;;27.70;;
64615;SDS011;51027;42.162;24.754;2023-03-04T03:45:24;51.20;;;27.08;;
64615;SDS011;51027;42.162;24.754;2023-03-04T03:47:50;54.75;;;29.70;;
64615;SDS011;51027;42.162;24.754;2023-03-04T03:50:15;49.25;;;26.83;;
64615;SDS011;51027;42.162;24.754;2023-03-04T03:52:41;52.35;;;29.15;;
64615;SDS011;51027;42.162;24.754;2023-03-04T03:55:07;53.65;;;28.90;;
64615;SDS011;51027;42.162;24.754;2023-03-04T03:57:33;49.80;;;26.23;;
64615;SDS011;51027;42.162;24.754;2023-03-04T03:59:59;54.60;;;28.33;;
64615;SDS011;51027;42.162;24.754;2023-03-04T04:02:25;50.67;;;28.35;;
64615;SDS011;51027;42.162;24.754;2023-03-04T04:04:50;51.78;;;29.40;;
64615;SDS011;51027;42.162;24.754;2023-03-04T04:07:16;47.60;;;26.55;;
64615;SDS011;51027;42.162;24.754;2023-03-04T04:09:42;45.78;;;25.15;;
64615;SDS011;51027;42.162;24.754;2023-03-04T04:12:08;52.15;;;28.77;;
64615;SDS011;51027;42.162;24.754;2023-03-04T04:14:38;54.65;;;30.08;;
64615;SDS011;51027;42.162;24.754;2023-03-04T04:17:04;48.72;;;28.48;;
64615;SDS011;51027;42.162;24.754;2023-03-04T04:19:30;52.85;;;28.95;;
64615;SDS011;51027;42.162;24.754;2023-03-04T04:21:55;56.03;;;29.98;;
64615;SDS011;51027;42.162;24.754;2023-03-04T04:24:21;53.15;;;29.30;;
64615;SDS011;51027;42.162;24.754;2023-03-04T04:26:46;50.35;;;29.00;;
64615;SDS011;51027;42.162;24.754;2023-03-04T04:29:12;54.33;;;29.15;;
64615;SDS011;51027;42.162;24.754;2023-03-04T04:31:39;52.65;;;28.45;;
64615;SDS011;51027;42.162;24.754;2023-03-04T04:34:05;55.08;;;28.55;;
64615;SDS011;51027;42.162;24.754;2023-03-04T04:36:30;55.45;;;27.52;;
64615;SDS011;51027;42.162;24.754;2023-03-04T04:38:56;53.67;;;28.38;;
64615;SDS011;51027;42.162;24.754;2023-03-04T04:41:23;51.97;;;28.08;;
64615;SDS011;51027;42.162;24.754;2023-03-04T04:43:50;49.10;;;27.83;;
64615;SDS011;51027;42.162;24.754;2023-03-04T04:46:16;52.13;;;27.52;;
64615;SDS011;51027;42.162;24.754;2023-03-04T04:48:43;56.88;;;28.55;;
64615;SDS011;51027;42.162;24.754;2023-03-04T04:51:09;53.30;;;28.60;;
64615;SDS011;51027;42.162;24.754;2023-03-04T04:53:35;63.25;;;30.92;;
64615;SDS011;51027;42.162;24.754;2023-03-04T04:56:12;66.35;;;30.63;;
64615;SDS011;51027;42.162;24.754;2023-03-04T04:58:40;59.05;;;27.98;;
64615;SDS011;51027;42.162;24.754;2023-03-04T05:01:06;58.33;;;28.73;;
64615;SDS011;51027;42.162;24.754;2023-03-04T05:03:33;53.95;;;29.45;;
64615;SDS011;51027;42.162;24.754;2023-03-04T05:05:59;69.60;;;30.00;;
64615;SDS011;51027;42.162;24.754;2023-03-04T05:08:25;58.40;;;27.30;;
64615;SDS011;51027;42.162;24.754;2023-03-04T05:10:51;43.65;;;24.92;;
64615;SDS011;51027;42.162;24.754;2023-03-04T05:13:17;56.42;;;25.92;;
64615;SDS011;51027;42.162;24.754;2023-03-04T05:15:43;54.88;;;25.38;;
64615;SDS011;51027;42.162;24.754;2023-03-04T05:18:10;53.17;;;24.38;;
64615;SDS011;51027;42.162;24.754;2023-03-04T05:20:35;49.33;;;25.20;;
64615;SDS011;51027;42.162;24.754;2023-03-04T05:23:00;51.08;;;26.58;;
64615;SDS011;51027;42.162;24.754;2023-03-04T05:25:26;57.88;;;26.63;;
64615;SDS011;51027;42.162;24.754;2023-03-04T05:27:51;53.05;;;24.90;;
64615;SDS011;51027;42.162;24.754;2023-03-04T05:30:17;55.85;;;24.42;;
64615;SDS011;51027;42.162;24.754;2023-03-04T05:32:43;47.45;;;22.20;;
64615;SDS011;51027;42.162;24.754;2023-03-04T05:35:09;46.42;;;21.17;;
64615;SDS011;51027;42.162;24.754;2023-03-04T05:37:34;47.75;;;22.42;;
64615;SDS011;51027;42.162;24.754;2023-03-04T05:40:00;46.58;;;22.88;;
64615;SDS011;51027;42.162;24.754;2023-03-04T05:42:25;42.67;;;22.05;;
64615;SDS011;51027;42.162;24.754;2023-03-04T05:44:51;48.35;;;22.85;;
64615;SDS011;51027;42.162;24.754;2023-03-04T05:47:17;47.45;;;21.85;;
64615;SDS011;51027;42.162;24.754;2023-03-04T05:49:42;46.40;;;21.80;;
64615;SDS011;51027;42.162;24.754;2023-03-04T05:52:08;49.13;;;23.45;;
64615;SDS011;51027;42.162;24.754;2023-03-04T05:54:34;46.97;;;21.50;;
64615;SDS011;51027;42.162;24.754;2023-03-04T05:57:00;47.35;;;23.42;;
64615;SDS011;51027;42.162;24.754;2023-03-04T05:59:26;51.20;;;23.20;;
64615;SDS011;51027;42.162;24.754;2023-03-04T06:01:52;48.88;;;23.17;;
64615;SDS011;51027;42.162;24.754;2023-03-04T06:04:18;50.40;;;21.75;;
64615;SDS011;51027;42.162;24.754;2023-03-04T06:06:44;43.90;;;21.45;;
64615;SDS011;51027;42.162;24.754;2023-03-04T06:09:12;55.72;;;22.55;;
64615;SDS011;51027;42.162;24.754;2023-03-04T06:11:39;55.25;;;25.15;;
64615;SDS011;51027;42.162;24.754;2023-03-04T06:14:05;70.75;;;29.27;;
64615;SDS011;51027;42.162;24.754;2023-03-04T06:16:31;51.83;;;25.67;;
64615;SDS011;51027;42.162;24.754;2023-03-04T06:18:56;61.78;;;27.15;;
64615;SDS011;51027;42.162;24.754;2023-03-04T06:21:22;62.60;;;27.60;;
64615;SDS011;51027;42.162;24.754;2023-03-04T06:23:47;52.38;;;26.52;;
64615;SDS011;51027;42.162;24.754;2023-03-04T06:26:13;57.22;;;27.50;;
64615;SDS011;51027;42.162;24.754;2023-03-04T06:28:43;60.47;;;26.70;;
64615;SDS011;51027;42.162;24.754;2023-03-04T06:31:08;55.97;;;26.17;;
64615;SDS011;51027;42.162;24.754;2023-03-04T06:33:34;52.80;;;25.98;;
64615;SDS011;51027;42.162;24.754;2023-03-04T06:36:00;51.08;;;25.73;;
64615;SDS011;51027;42.162;24.754;2023-03-04T06:38:26;48.00;;;25.95;;
64615;SDS011;51027;42.162;24.754;2023-03-04T06:40:52;54.80;;;26.38;;
64615;SDS011;51027;42.162;24.754;2023-03-04T06:43:18;52.70;;;26.75;;
64615;SDS011;51027;42.162;24.754;2023-03-04T06:45:43;47.65;;;23.98;;
64615;SDS011;51027;42.162;24.754;2023-03-04T06:48:09;54.03;;;27.30;;
64615;SDS011;51027;42.162;24.754;2023-03-04T06:50:35;45.65;;;22.98;;
64615;SDS011;51027;42.162;24.754;2023-03-04T06:53:01;51.17;;;24.08;;
64615;SDS011;51027;42.162;24.754;2023-03-04T06:55:26;50.72;;;23.70;;
64615;SDS011;51027;42.162;24.754;2023-03-04T06:57:52;54.67;;;26.02;;
64615;SDS011;51027;42.162;24.754;2023-03-04T07:00:17;63.03;;;29.08;;
64615;SDS011;51027;42.162;24.754;2023-03-04T07:02:43;49.88;;;23.45;;
64615;SDS011;51027;42.162;24.754;2023-03-04T07:05:09;52.42;;;24.23;;
64615;SDS011;51027;42.162;24.754;2023-03-04T07:07:36;55.15;;;25.13;;
64615;SDS011;51027;42.162;24.754;2023-03-04T07:10:02;52.58;;;23.85;;
64615;SDS011;51027;42.162;24.754;2023-03-04T07:12:28;50.88;;;25.30;;
64615;SDS011;51027;42.162;24.754;2023-03-04T07:14:54;54.05;;;25.35;;
64615;SDS011;51027;42.162;24.754;2023-03-04T07:17:19;53.67;;;25.13;;
64615;SDS011;51027;42.162;24.754;2023-03-04T07:19:45;49.50;;;24.98;;
64615;SDS011;51027;42.162;24.754;2023-03-04T07:22:10;55.08;;;26.63;;
64615;SDS011;51027;42.162;24.754;2023-03-04T07:24:35;55.72;;;26.05;;
64615;SDS011;51027;42.162;24.754;2023-03-04T07:27:01;55.90;;;27.38;;
64615;SDS011;51027;42.162;24.754;2023-03-04T07:29:26;54.60;;;24.38;;
64615;SDS011;51027;42.162;24.754;2023-03-04T07:31:52;50.78;;;26.02;;
64615;SDS011;51027;42.162;24.754;2023-03-04T07:34:17;54.80;;;30.02;;
64615;SDS011;51027;42.162;24.754;2023-03-04T07:36:43;60.00;;;29.92;;
64615;SDS011;51027;42.162;24.754;2023-03-04T07:39:09;58.17;;;30.77;;
64615;SDS011;51027;42.162;24.754;2023-03-04T07:41:37;59.72;;;30.55;;
64615;SDS011;51027;42.162;24.754;2023-03-04T07:44:03;56.80;;;27.30;;
64615;SDS011;51027;42.162;24.754;2023-03-04T07:46:29;58.58;;;29.40;;
64615;SDS011;51027;42.162;24.754;2023-03-04T07:48:55;59.42;;;30.10;;
64615;SDS011;51027;42.162;24.754;2023-03-04T07:51:21;56.17;;;29.58;;
64615;SDS011;51027;42.162;24.754;2023-03-04T07:53:50;58.75;;;29.60;;
64615;SDS011;51027;42.162;24.754;2023-03-04T07:56:18;65.85;;;31.98;;
64615;SDS011;51027;42.162;24.754;2023-03-04T07:58:45;65.10;;;31.45;;
64615;SDS011;51027;42.162;24.754;2023-03-04T08:01:12;66.15;;;30.00;;
64615;SDS011;51027;42.162;24.754;2023-03-04T08:03:41;58.55;;;29.50;;
64615;SDS011;51027;42.162;24.754;2023-03-04T08:06:08;67.03;;;31.02;;
64615;SDS011;51027;42.162;24.754;2023-03-04T08:08:35;65.97;;;30.27;;
64615;SDS011;51027;42.162;24.754;2023-03-04T08:11:08;67.47;;;32.53;;
64615;SDS011;51027;42.162;24.754;2023-03-04T08:13:35;67.30;;;31.42;;
64615;SDS011;51027;42.162;24.754;2023-03-04T08:16:01;66.60;;;32.45;;
64615;SDS011;51027;42.162;24.754;2023-03-04T08:18:27;94.38;;;38.42;;
64615;SDS011;51027;42.162;24.754;2023-03-04T08:20:53;138.18;;;53.80;;
64615;SDS011;51027;42.162;24.754;2023-03-04T08:23:18;89.95;;;40.08;;
64615;SDS011;51027;42.162;24.754;2023-03-04T08:25:44;69.90;;;33.25;;
64615;SDS011;51027;42.162;24.754;2023-03-04T08:28:10;68.53;;;33.15;;
64615;SDS011;51027;42.162;24.754;2023-03-04T08:30:37;71.35;;;35.10;;
64615;SDS011;51027;42.162;24.754;2023-03-04T08:33:04;71.05;;;35.80;;
64615;SDS011;51027;42.162;24.754;2023-03-04T08:35:29;77.82;;;35.78;;
64615;SDS011;51027;42.162;24.754;2023-03-04T08:37:55;69.22;;;35.75;;
64615;SDS011;51027;42.162;24.754;2023-03-04T08:40:20;82.72;;;39.45;;
64615;SDS011;51027;42.162;24.754;2023-03-04T08:42:46;66.13;;;33.22;;
64615;SDS011;51027;42.162;24.754;2023-03-04T08:45:11;68.32;;;32.25;;
64615;SDS011;51027;42.162;24.754;2023-03-04T08:47:37;61.00;;;32.50;;
64615;SDS011;51027;42.162;24.754;2023-03-04T08:50:04;55.95;;;29.45;;
64615;SDS011;51027;42.162;24.754;2023-03-04T08:52:30;56.80;;;27.80;;
64615;SDS011;51027;42.162;24.754;2023-03-04T08:54:56;54.58;;;28.85;;
64615;SDS011;51027;42.162;24.754;2023-03-04T08:57:22;66.45;;;29.42;;
64615;SDS011;51027;42.162;24.754;2023-03-04T08:59:47;91.18;;;41.03;;
64615;SDS011;51027;42.162;24.754;2023-03-04T09:02:13;88.20;;;45.92;;
64615;SDS011;51027;42.162;24.754;2023-03-04T09:04:39;89.75;;;44.20;;
64615;SDS011;51027;42.162;24.754;2023-03-04T09:07:04;92.47;;;42.47;;
64615;SDS011;51027;42.162;24.754;2023-03-04T09:09:30;89.35;;;40.80;;
64615;SDS011;51027;42.162;24.754;2023-03-04T09:11:55;77.18;;;39.28;;
64615;SDS011;51027;42.162;24.754;2023-03-04T09:14:21;75.97;;;40.10;;
64615;SDS011;51027;42.162;24.754;2023-03-04T09:16:46;86.38;;;42.33;;
64615;SDS011;51027;42.162;24.754;2023-03-04T09:19:12;75.25;;;39.42;;
64615;SDS011;51027;42.162;24.754;2023-03-04T09:21:37;69.85;;;36.28;;
64615;SDS011;51027;42.162;24.754;2023-03-04T09:24:03;77.63;;;37.75;;
64615;SDS011;51027;42.162;24.754;2023-03-04T09:26:29;71.03;;;35.13;;
64615;SDS011;51027;42.162;24.754;2023-03-04T09:28:55;69.80;;;35.72;;
64615;SDS011;51027;42.162;24.754;2023-03-04T09:31:22;70.90;;;35.53;;
64615;SDS011;51027;42.162;24.754;2023-03-04T09:33:49;64.88;;;33.20;;
64615;SDS011;51027;42.162;24.754;2023-03-04T09:36:15;63.72;;;33.17;;
64615;SDS011;51027;42.162;24.754;2023-03-04T09:38:41;64.78;;;32.47;;
64615;SDS011;51027;42.162;24.754;2023-03-04T09:41:09;68.20;;;32.50;;
64615;SDS011;51027;42.162;24.754;2023-03-04T09:43:39;64.78;;;34.17;;
64615;SDS011;51027;42.162;24.754;2023-03-04T09:46:07;63.55;;;31.17;;
64615;SDS011;51027;42.162;24.754;2023-03-04T09:48:43;63.15;;;33.83;;
64615;SDS011;51027;42.162;24.754;2023-03-04T09:54:13;61.63;;;32.38;;
64615;SDS011;51027;42.162;24.754;2023-03-04T09:57:26;63.25;;;32.80;;
64615;SDS011;51027;42.162;24.754;2023-03-04T10:00:06;63.85;;;33.97;;
64615;SDS011;51027;42.162;24.754;2023-03-04T10:05:31;67.78;;;37.13;;
64615;SDS011;51027;42.162;24.754;2023-03-04T10:11:00;59.28;;;33.85;;
64615;SDS011;51027;42.162;24.754;2023-03-04T10:13:30;57.00;;;30.58;;
64615;SDS011;51027;42.162;24.754;2023-03-04T10:16:10;61.42;;;34.13;;
64615;SDS011;51027;42.162;24.754;2023-03-04T10:18:48;59.28;;;32.38;;
64615;SDS011;51027;42.162;24.754;2023-03-04T10:21:25;51.58;;;27.08;;
64615;SDS011;51027;42.162;24.754;2023-03-04T10:23:53;54.63;;;30.42;;
64615;SDS011;51027;42.162;24.754;2023-03-04T10:26:19;55.83;;;30.80;;
64615;SDS011;51027;42.162;24.754;2023-03-04T10:28:47;59.65;;;31.60;;
64615;SDS011;51027;42.162;24.754;2023-03-04T10:34:09;49.33;;;29.55;;
64615;SDS011;51027;42.162;24.754;2023-03-04T10:39:33;58.38;;;29.30;;
64615;SDS011;51027;42.162;24.754;2023-03-04T10:44:42;54.35;;;26.30;;
64615;SDS011;51027;42.162;24.754;2023-03-04T10:47:29;49.97;;;27.63;;
64615;SDS011;51027;42.162;24.754;2023-03-04T10:49:58;53.40;;;27.98;;
64615;SDS011;51027;42.162;24.754;2023-03-04T10:52:35;48.20;;;25.15;;
64615;SDS011;51027;42.162;24.754;2023-03-04T10:55:18;49.33;;;26.02;;
64615;SDS011;51027;42.162;24.754;2023-03-04T10:57:48;46.95;;;24.65;;
64615;SDS011;51027;42.162;24.754;2023-03-04T11:00:33;47.70;;;24.00;;
64615;SDS011;51027;42.162;24.754;2023-03-04T11:04:01;46.50;;;26.00;;
64615;SDS011;51027;42.162;24.754;2023-03-04T11:08:42;50.20;;;25.15;;
64615;SDS011;51027;42.162;24.754;2023-03-04T11:14:13;50.67;;;26.77;;
64615;SDS011;51027;42.162;24.754;2023-03-04T11:16:55;45.30;;;23.08;;
64615;SDS011;51027;42.162;24.754;2023-03-04T11:19:28;48.03;;;25.13;;
64615;SDS011;51027;42.162;24.754;2023-03-04T11:22:03;48.83;;;24.95;;
64615;SDS011;51027;42.162;24.754;2023-03-04T11:24:30;46.78;;;23.90;;
64615;SDS011;51027;42.162;24.754;2023-03-04T11:30:15;49.42;;;24.10;;
64615;SDS011;51027;42.162;24.754;2023-03-04T11:32:51;48.63;;;25.85;;
64615;SDS011;51027;42.162;24.754;2023-03-04T11:40:42;50.03;;;25.75;;
64615;SDS011;51027;42.162;24.754;2023-03-04T11:51:51;38.90;;;20.92;;
64615;SDS011;51027;42.162;24.754;2023-03-04T11:56:59;44.78;;;24.75;;
64615;SDS011;51027;42.162;24.754;2023-03-04T12:02:15;47.60;;;26.60;;
64615;SDS011;51027;42.162;24.754;2023-03-04T12:07:29;46.70;;;24.67;;
64615;SDS011;51027;42.162;24.754;2023-03-04T12:16:08;49.78;;;26.33;;
64615;SDS011;51027;42.162;24.754;2023-03-04T12:21:55;46.10;;;22.88;;
64615;SDS011;51027;42.162;24.754;2023-03-04T12:45:46;34.13;;;18.75;;
64615;SDS011;51027;42.162;24.754;2023-03-04T12:56:41;41.10;;;23.08;;
64615;SDS011;51027;42.162;24.754;2023-03-04T12:59:17;35.90;;;20.27;;
64615;SDS011;51027;42.162;24.754;2023-03-04T13:04:22;38.15;;;19.38;;
64615;SDS011;51027;42.162;24.754;2023-03-04T13:09:56;35.65;;;18.25;;
64615;SDS011;51027;42.162;24.754;2023-03-04T13:12:39;38.58;;;18.73;;
64615;SDS011;51027;42.162;24.754;2023-03-04T13:17:57;35.97;;;18.55;;
64615;SDS011;51027;42.162;24.754;2023-03-04T13:23:00;32.92;;;16.98;;
64615;SDS011;51027;42.162;24.754;2023-03-04T13:30:41;35.17;;;18.50;;
64615;SDS011;51027;42.162;24.754;2023-03-04T13:35:59;34.83;;;17.50;;
64615;SDS011;51027;42.162;24.754;2023-03-04T13:51:22;30.77;;;13.35;;
64615;SDS011;51027;42.162;24.754;2023-03-04T13:56:20;29.33;;;14.88;;
64615;SDS011;51027;42.162;24.754;2023-03-04T13:58:48;30.25;;;13.40;;
64615;SDS011;51027;42.162;24.754;2023-03-04T14:01:27;29.08;;;14.18;;
64615;SDS011;51027;42.162;24.754;2023-03-04T14:03:55;29.33;;;14.30;;
64615;SDS011;51027;42.162;24.754;2023-03-04T14:06:23;31.15;;;15.50;;
64615;SDS011;51027;42.162;24.754;2023-03-04T14:08:50;31.90;;;16.15;;
64615;SDS011;51027;42.162;24.754;2023-03-04T14:11:21;30.02;;;14.95;;
64615;SDS011;51027;42.162;24.754;2023-03-04T14:13:48;29.52;;;15.70;;
64615;SDS011;51027;42.162;24.754;2023-03-04T14:16:18;28.02;;;14.30;;
64615;SDS011;51027;42.162;24.754;2023-03-04T14:18:45;32.35;;;15.48;;
64615;SDS011;51027;42.162;24.754;2023-03-04T14:21:21;34.17;;;16.48;;
64615;SDS011;51027;42.162;24.754;2023-03-04T14:23:46;33.92;;;15.73;;
64615;SDS011;51027;42.162;24.754;2023-03-04T14:26:31;32.53;;;17.17;;
64615;SDS011;51027;42.162;24.754;2023-03-04T14:28:57;31.17;;;16.48;;
64615;SDS011;51027;42.162;24.754;2023-03-04T14:31:24;33.55;;;16.88;;
64615;SDS011;51027;42.162;24.754;2023-03-04T14:33:54;36.05;;;18.20;;
64615;SDS011;51027;42.162;24.754;2023-03-04T14:38:53;32.28;;;17.13;;
64615;SDS011;51027;42.162;24.754;2023-03-04T14:41:34;32.03;;;15.88;;
64615;SDS011;51027;42.162;24.754;2023-03-04T14:46:52;33.25;;;17.27;;
64615;SDS011;51027;42.162;24.754;2023-03-04T14:49:23;34.83;;;18.30;;
64615;SDS011;51027;42.162;24.754;2023-03-04T14:51:50;33.78;;;16.85;;
64615;SDS011;51027;42.162;24.754;2023-03-04T14:56:55;36.22;;;17.90;;
64615;SDS011;51027;42.162;24.754;2023-03-04T14:59:28;36.28;;;16.98;;
64615;SDS011;51027;42.162;24.754;2023-03-04T15:02:07;36.85;;;18.50;;
64615;SDS011;51027;42.162;24.754;2023-03-04T15:04:41;33.80;;;16.80;;
64615;SDS011;51027;42.162;24.754;2023-03-04T15:07:12;41.28;;;20.67;;
64615;SDS011;51027;42.162;24.754;2023-03-04T15:09:59;34.72;;;18.67;;
64615;SDS011;51027;42.162;24.754;2023-03-04T15:12:29;33.88;;;18.35;;
64615;SDS011;51027;42.162;24.754;2023-03-04T15:14:57;36.05;;;18.75;;
64615;SDS011;51027;42.162;24.754;2023-03-04T15:17:32;49.22;;;44.20;;
64615;SDS011;51027;42.162;24.754;2023-03-04T15:22:35;36.97;;;20.40;;
64615;SDS011;51027;42.162;24.754;2023-03-04T15:25:04;37.05;;;19.85;;
64615;SDS011;51027;42.162;24.754;2023-03-04T15:27:30;36.38;;;20.45;;
64615;SDS011;51027;42.162;24.754;2023-03-04T15:29:58;37.75;;;19.17;;
64615;SDS011;51027;42.162;24.754;2023-03-04T15:32:25;38.60;;;19.60;;
64615;SDS011;51027;42.162;24.754;2023-03-04T15:34:54;34.35;;;17.20;;
64615;SDS011;51027;42.162;24.754;2023-03-04T15:37:21;34.13;;;17.33;;
64615;SDS011;51027;42.162;24.754;2023-03-04T15:39:49;33.13;;;16.77;;
64615;SDS011;51027;42.162;24.754;2023-03-04T15:42:16;34.60;;;17.90;;
64615;SDS011;51027;42.162;24.754;2023-03-04T15:44:42;38.60;;;17.40;;
64615;SDS011;51027;42.162;24.754;2023-03-04T15:47:08;34.38;;;17.60;;
64615;SDS011;51027;42.162;24.754;2023-03-04T15:49:41;35.33;;;18.20;;
64615;SDS011;51027;42.162;24.754;2023-03-04T15:54:45;34.13;;;18.02;;
64615;SDS011;51027;42.162;24.754;2023-03-04T15:57:19;36.67;;;19.98;;
64615;SDS011;51027;42.162;24.754;2023-03-04T15:59:47;39.13;;;21.15;;
64615;SDS011;51027;42.162;24.754;2023-03-04T16:02:22;38.58;;;20.52;;
64615;SDS011;51027;42.162;24.754;2023-03-04T16:04:51;39.70;;;20.98;;
64615;SDS011;51027;42.162;24.754;2023-03-04T16:07:20;36.20;;;19.98;;
64615;SDS011;51027;42.162;24.754;2023-03-04T16:09:53;39.92;;;20.13;;
64615;SDS011;51027;42.162;24.754;2023-03-04T16:12:20;39.90;;;20.75;;
64615;SDS011;51027;42.162;24.754;2023-03-04T16:14:47;39.40;;;20.63;;
64615;SDS011;51027;42.162;24.754;2023-03-04T16:17:14;45.38;;;24.60;;
64615;SDS011;51027;42.162;24.754;2023-03-04T16:19:40;59.03;;;31.70;;
64615;SDS011;51027;42.162;24.754;2023-03-04T16:22:06;53.25;;;28.00;;
64615;SDS011;51027;42.162;24.754;2023-03-04T16:24:33;43.63;;;23.63;;
64615;SDS011;51027;42.162;24.754;2023-03-04T16:26:59;41.42;;;20.92;;
64615;SDS011;51027;42.162;24.754;2023-03-04T16:29:24;42.40;;;21.08;;
64615;SDS011;51027;42.162;24.754;2023-03-04T16:31:50;45.65;;;23.85;;
64615;SDS011;51027;42.162;24.754;2023-03-04T16:34:18;43.85;;;22.40;;